createdAt,value
2023-02-23T00:02:24.525Z,8.91
2023-02-23T00:04:50.837Z,8.91
2023-02-23T00:07:17.156Z,8.92
2023-02-23T00:09:43.464Z,8.91
2023-02-23T00:12:09.832Z,8.90
2023-02-23T00:14:36.944Z,8.90
2023-02-23T00:17:04.935Z,8.90
2023-02-23T00:19:31.374Z,8.92
2023-02-23T00:21:57.690Z,8.92
2023-02-23T00:24:24.052Z,8.92
2023-02-23T00:26:50.379Z,8.93
2023-02-23T00:29:17.310Z,8.92
2023-02-23T00:31:43.881Z,8.92
2023-02-23T00:34:13.107Z,8.92
2023-02-23T00:36:39.885Z,8.92
2023-02-23T00:39:07.609Z,8.90
2023-02-23T00:41:33.881Z,8.91
2023-02-23T00:44:00.686Z,8.91
2023-02-23T00:46:28.112Z,8.92
2023-02-23T00:48:55.590Z,8.91
2023-02-23T00:51:24.326Z,8.90
2023-02-23T00:53:53.346Z,8.91
2023-02-23T00:56:19.680Z,8.89
2023-02-23T00:58:46.053Z,8.90
2023-02-23T01:01:13.349Z,8.91
2023-02-23T01:03:40.202Z,8.90
2023-02-23T01:06:07.666Z,8.91
2023-02-23T01:08:35.974Z,8.91
2023-02-23T01:11:06.174Z,8.92
2023-02-23T01:13:32.478Z,8.91
2023-02-23T01:15:58.894Z,8.90
2023-02-23T01:18:25.462Z,8.86
2023-02-23T01:20:51.770Z,8.85
2023-02-23T01:23:21.135Z,8.82
2023-02-23T01:25:48.851Z,8.82
2023-02-23T01:28:15.158Z,8.82
2023-02-23T01:30:41.521Z,8.79
2023-02-23T01:33:07.959Z,8.81
2023-02-23T01:35:34.370Z,8.80
2023-02-23T01:38:00.837Z,8.80
2023-02-23T01:40:27.327Z,8.79
2023-02-23T01:42:55.757Z,8.79
2023-02-23T01:45:28.241Z,8.79
2023-02-23T01:47:56.809Z,8.78
2023-02-23T01:50:24.937Z,8.78
2023-02-23T01:52:51.997Z,8.76
2023-02-23T01:55:19.670Z,8.77
2023-02-23T01:57:46.222Z,8.77
2023-02-23T02:00:14.496Z,8.75
2023-02-23T02:02:41.275Z,8.74
2023-02-23T02:05:08.356Z,8.72
2023-02-23T02:07:35.022Z,8.72
2023-02-23T02:10:01.363Z,8.69
2023-02-23T02:12:27.685Z,8.69
2023-02-23T02:14:54.026Z,8.68
2023-02-23T02:17:30.688Z,8.65
2023-02-23T02:20:23.059Z,8.66
2023-02-23T02:23:13.579Z,8.66
2023-02-23T02:25:49.470Z,8.67
2023-02-23T02:28:29.356Z,8.68
2023-02-23T02:31:07.231Z,8.68
2023-02-23T02:33:40.738Z,8.70
2023-02-23T02:36:24.975Z,8.72
2023-02-23T02:38:55.920Z,8.71
2023-02-23T02:41:28.168Z,8.73
2023-02-23T02:43:58.164Z,8.73
2023-02-23T02:46:26.386Z,8.73
2023-02-23T02:48:56.684Z,8.73
2023-02-23T02:51:25.533Z,8.71
2023-02-23T02:53:57.642Z,8.71
2023-02-23T02:56:26.902Z,8.71
2023-02-23T02:58:53.780Z,8.71
2023-02-23T03:01:20.858Z,8.70
2023-02-23T03:03:47.572Z,8.71
2023-02-23T03:06:14.340Z,8.70
2023-02-23T03:08:44.009Z,8.71
2023-02-23T03:11:11.487Z,8.71
2023-02-23T03:13:45.856Z,8.70
2023-02-23T03:16:18.474Z,8.71
2023-02-23T03:18:54.931Z,8.73
2023-02-23T03:21:25.581Z,8.68
2023-02-23T03:23:56.396Z,8.69
2023-02-23T03:26:28.000Z,8.66
2023-02-23T03:29:01.682Z,8.66
2023-02-23T03:31:35.681Z,8.67
2023-02-23T03:34:05.971Z,8.67
2023-02-23T03:36:36.112Z,8.71
2023-02-23T03:39:07.356Z,8.80
2023-02-23T03:41:35.758Z,8.85
2023-02-23T03:44:07.400Z,8.73
2023-02-23T03:46:35.958Z,8.66
2023-02-23T03:49:04.013Z,8.49
2023-02-23T03:51:31.920Z,8.38
2023-02-23T03:54:01.748Z,8.37
2023-02-23T03:56:30.107Z,8.38
2023-02-23T03:58:58.680Z,8.33
2023-02-23T04:01:27.100Z,8.30
2023-02-23T04:03:56.540Z,8.27
2023-02-23T04:06:24.014Z,8.27
2023-02-23T04:08:51.048Z,8.27
2023-02-23T04:11:20.579Z,8.32
2023-02-23T04:13:50.972Z,8.34
2023-02-23T04:16:17.813Z,8.33
2023-02-23T04:18:45.498Z,8.28
2023-02-23T04:21:11.891Z,8.31
2023-02-23T04:23:38.758Z,8.35
2023-02-23T04:26:05.119Z,8.30
2023-02-23T04:28:31.495Z,8.26
2023-02-23T04:30:57.851Z,8.24
2023-02-23T04:33:24.190Z,8.19
2023-02-23T04:35:53.364Z,8.21
2023-02-23T04:38:19.681Z,8.14
2023-02-23T04:40:46.085Z,8.13
2023-02-23T04:43:12.803Z,8.16
2023-02-23T04:45:39.369Z,8.21
2023-02-23T04:48:06.277Z,8.18
2023-02-23T04:50:32.813Z,8.28
2023-02-23T04:53:00.555Z,8.22
2023-02-23T04:55:26.831Z,8.22
2023-02-23T04:57:57.135Z,8.21
2023-02-23T05:00:23.487Z,8.10
2023-02-23T05:02:50.864Z,8.13
2023-02-23T05:05:17.378Z,8.05
2023-02-23T05:07:43.674Z,8.17
2023-02-23T05:10:11.907Z,8.18
2023-02-23T05:12:38.241Z,8.03
2023-02-23T05:15:05.158Z,8.02
2023-02-23T05:17:31.594Z,7.96
2023-02-23T05:19:57.917Z,8.02
2023-02-23T05:22:24.223Z,8.02
2023-02-23T05:24:50.701Z,8.04
2023-02-23T05:27:18.359Z,8.00
2023-02-23T05:29:44.652Z,7.99
2023-02-23T05:32:11.125Z,7.98
2023-02-23T05:34:37.622Z,7.97
2023-02-23T05:37:03.953Z,7.95
2023-02-23T05:39:30.261Z,7.98
2023-02-23T05:41:56.562Z,7.95
2023-02-23T05:44:24.257Z,7.96
2023-02-23T05:46:50.554Z,7.96
2023-02-23T05:49:16.883Z,7.97
2023-02-23T05:51:43.221Z,8.01
2023-02-23T05:54:09.556Z,7.97
2023-02-23T05:56:35.852Z,7.98
2023-02-23T05:59:02.246Z,7.97
2023-02-23T06:01:30.366Z,7.96
2023-02-23T06:03:56.921Z,7.96
2023-02-23T06:06:23.421Z,7.95
2023-02-23T06:08:49.744Z,7.97
2023-02-23T06:11:16.032Z,7.98
2023-02-23T06:13:42.344Z,7.98
2023-02-23T06:16:08.840Z,7.97
2023-02-23T06:18:36.606Z,7.97
2023-02-23T06:21:03.297Z,7.96
2023-02-23T06:23:30.837Z,7.94
2023-02-23T06:25:57.355Z,7.92
2023-02-23T06:28:23.684Z,7.92
2023-02-23T06:30:51.586Z,7.92
2023-02-23T06:33:17.973Z,7.91
2023-02-23T06:35:45.674Z,7.92
2023-02-23T06:38:12.409Z,7.92
2023-02-23T06:40:38.851Z,7.91
2023-02-23T06:43:05.233Z,7.91
2023-02-23T06:45:31.839Z,7.91
2023-02-23T06:47:58.289Z,7.91
2023-02-23T06:50:24.658Z,7.87
2023-02-23T06:52:52.289Z,7.86
2023-02-23T06:55:18.588Z,7.87
2023-02-23T06:57:44.872Z,7.89
2023-02-23T07:00:11.789Z,7.89
2023-02-23T07:02:38.145Z,7.91
2023-02-23T07:05:04.733Z,7.94
2023-02-23T07:07:31.041Z,7.94
2023-02-23T07:09:58.718Z,7.95
2023-02-23T07:12:25.302Z,7.94
2023-02-23T07:14:51.596Z,7.93
2023-02-23T07:17:17.997Z,7.92
2023-02-23T07:19:44.320Z,7.94
2023-02-23T07:22:10.659Z,7.94
2023-02-23T07:24:36.994Z,7.95
2023-02-23T07:27:04.703Z,7.96
2023-02-23T07:29:31.037Z,7.98
2023-02-23T07:31:57.452Z,8.02
2023-02-23T07:34:23.825Z,8.05
2023-02-23T07:36:50.154Z,8.03
2023-02-23T07:39:16.491Z,8.01
2023-02-23T07:41:42.807Z,8.05
2023-02-23T07:44:10.442Z,8.05
2023-02-23T07:46:36.716Z,8.04
2023-02-23T07:49:03.188Z,8.08
2023-02-23T07:51:29.496Z,8.08
2023-02-23T07:53:55.938Z,8.13
2023-02-23T07:56:22.231Z,8.14
2023-02-23T07:58:48.560Z,8.14
2023-02-23T08:01:16.490Z,8.16
2023-02-23T08:03:42.832Z,8.16
2023-02-23T08:06:09.167Z,8.20
2023-02-23T08:08:35.557Z,8.17
2023-02-23T08:11:02.406Z,8.19
2023-02-23T08:13:28.821Z,8.27
2023-02-23T08:15:55.120Z,8.24
2023-02-23T08:18:23.029Z,8.21
2023-02-23T08:20:49.526Z,8.19
2023-02-23T08:23:15.879Z,8.24
2023-02-23T08:25:42.277Z,8.30
2023-02-23T08:28:08.587Z,8.33
2023-02-23T08:30:35.030Z,8.27
2023-02-23T08:33:01.444Z,8.24
2023-02-23T08:35:29.092Z,8.30
2023-02-23T08:37:56.863Z,8.31
2023-02-23T08:40:23.329Z,8.32
2023-02-23T08:42:49.666Z,8.33
2023-02-23T08:45:16.161Z,8.33
2023-02-23T08:47:42.557Z,8.34
2023-02-23T08:50:09.578Z,8.31
2023-02-23T08:52:37.750Z,8.42
2023-02-23T08:55:04.280Z,8.37
2023-02-23T08:57:32.272Z,8.40
2023-02-23T08:59:58.598Z,8.38
2023-02-23T09:02:24.898Z,8.37
2023-02-23T09:04:51.214Z,8.46
2023-02-23T09:07:17.706Z,8.52
2023-02-23T09:09:45.389Z,8.45
2023-02-23T09:12:11.715Z,8.60
2023-02-23T09:14:38.032Z,8.51
2023-02-23T09:17:04.364Z,8.52
2023-02-23T09:19:31.558Z,8.32
2023-02-23T09:21:57.875Z,8.32
2023-02-23T09:24:24.155Z,8.39
2023-02-23T09:26:51.853Z,8.43
2023-02-23T09:29:18.174Z,8.49
2023-02-23T09:31:44.614Z,8.54
2023-02-23T09:34:10.995Z,8.55
2023-02-23T09:36:37.305Z,8.54
2023-02-23T09:39:03.737Z,8.52
2023-02-23T09:41:51.206Z,8.58
2023-02-23T09:44:26.298Z,8.62
2023-02-23T09:46:59.438Z,8.76
2023-02-23T09:49:28.230Z,8.65
2023-02-23T09:51:56.073Z,8.68
2023-02-23T09:54:23.478Z,8.68
2023-02-23T09:56:50.260Z,8.71
2023-02-23T09:59:17.830Z,8.72
2023-02-23T10:01:52.898Z,8.88
2023-02-23T10:04:21.264Z,8.95
2023-02-23T10:06:50.313Z,8.84
2023-02-23T10:09:21.841Z,8.83
2023-02-23T10:11:52.823Z,8.96
2023-02-23T10:14:41.574Z,8.90
2023-02-23T10:17:14.291Z,8.93
2023-02-23T10:19:44.282Z,8.96
2023-02-23T10:22:11.537Z,8.94
2023-02-23T10:24:40.536Z,8.92
2023-02-23T10:27:08.568Z,8.98
2023-02-23T10:29:37.084Z,8.97
2023-02-23T10:32:05.357Z,9.06
2023-02-23T10:34:33.692Z,8.99
2023-02-23T10:37:00.911Z,9.15
2023-02-23T10:39:28.616Z,9.09
2023-02-23T10:41:56.320Z,9.10
2023-02-23T10:44:24.303Z,9.13
2023-02-23T10:46:54.761Z,9.12
2023-02-23T10:49:24.660Z,9.08
2023-02-23T10:51:52.467Z,9.16
2023-02-23T10:54:35.332Z,9.19
2023-02-23T10:57:01.818Z,9.23
2023-02-23T10:59:28.774Z,9.21
2023-02-23T11:02:02.445Z,9.27
2023-02-23T11:04:30.081Z,9.22
2023-02-23T11:07:08.137Z,9.25
2023-02-23T11:09:45.725Z,9.33
2023-02-23T11:12:16.842Z,9.46
2023-02-23T11:14:43.276Z,9.50
2023-02-23T11:17:24.267Z,9.56
2023-02-23T11:19:50.699Z,9.57
2023-02-23T11:22:19.985Z,9.54
2023-02-23T11:24:46.353Z,9.63
2023-02-23T11:27:20.106Z,9.58
2023-02-23T11:29:47.760Z,9.54
2023-02-23T11:32:16.051Z,9.53
2023-02-23T11:34:42.603Z,9.56
2023-02-23T11:37:20.104Z,9.58
2023-02-23T11:39:53.750Z,9.66
2023-02-23T11:42:21.062Z,9.69
2023-02-23T11:44:51.362Z,9.71
2023-02-23T11:47:19.091Z,9.75
2023-02-23T11:49:46.876Z,9.76
2023-02-23T11:52:15.128Z,9.81
2023-02-23T11:54:48.075Z,9.86
2023-02-23T11:57:21.199Z,9.76
2023-02-23T11:59:48.136Z,9.83
2023-02-23T12:02:21.043Z,9.83
2023-02-23T12:04:47.537Z,9.89
2023-02-23T12:07:21.212Z,9.96
2023-02-23T12:09:51.617Z,9.84
2023-02-23T12:12:21.513Z,9.91
2023-02-23T12:14:52.166Z,9.93
2023-02-23T12:17:21.288Z,9.99
2023-02-23T12:19:49.010Z,9.96
2023-02-23T12:22:17.323Z,9.87
2023-02-23T12:24:45.047Z,9.96
2023-02-23T12:27:13.766Z,10.00
2023-02-23T12:29:43.887Z,10.07
2023-02-23T12:32:14.507Z,10.05
2023-02-23T12:34:43.782Z,10.00
2023-02-23T12:37:19.962Z,10.06
2023-02-23T12:39:48.933Z,10.08
2023-02-23T12:42:17.445Z,10.00
2023-02-23T12:44:46.775Z,10.03
2023-02-23T12:47:21.044Z,10.15
2023-02-23T12:49:51.243Z,10.10
2023-02-23T12:52:19.665Z,10.14
2023-02-23T12:54:46.150Z,10.12
2023-02-23T12:57:16.991Z,10.13
2023-02-23T12:59:47.831Z,10.10
2023-02-23T13:02:17.952Z,10.18
2023-02-23T13:04:57.338Z,10.07
2023-02-23T13:07:29.198Z,10.06
2023-02-23T13:10:00.635Z,10.09
2023-02-23T13:12:36.777Z,10.21
2023-02-23T13:15:10.497Z,10.22
2023-02-23T13:17:38.916Z,10.12
2023-02-23T13:20:12.901Z,9.99
2023-02-23T13:22:42.303Z,10.03
2023-02-23T13:25:13.203Z,10.20
2023-02-23T13:27:43.076Z,10.09
2023-02-23T13:30:10.017Z,9.99
2023-02-23T13:32:36.861Z,9.97
2023-02-23T13:35:04.730Z,9.99
2023-02-23T13:37:36.558Z,9.95
2023-02-23T13:40:19.788Z,9.89
2023-02-23T13:42:53.004Z,9.83
2023-02-23T13:45:40.433Z,9.92
2023-02-23T13:48:13.967Z,9.97
2023-02-23T13:50:42.591Z,9.85
2023-02-23T13:53:27.077Z,9.88
2023-02-23T13:55:57.725Z,9.90
2023-02-23T13:58:26.862Z,9.89
2023-02-23T14:00:54.658Z,9.83
2023-02-23T14:03:22.858Z,9.82
2023-02-23T14:05:51.814Z,9.91
2023-02-23T14:08:23.124Z,9.88
2023-02-23T14:10:50.300Z,9.81
2023-02-23T14:13:25.074Z,9.75
2023-02-23T14:16:08.115Z,9.72
2023-02-23T14:18:34.924Z,9.77
2023-02-23T14:21:11.239Z,9.82
2023-02-23T14:23:50.439Z,9.68
2023-02-23T14:26:35.042Z,9.70
2023-02-23T14:29:17.233Z,9.73
2023-02-23T14:31:53.468Z,9.64
2023-02-23T14:34:20.595Z,9.60
2023-02-23T14:36:46.922Z,9.67
2023-02-23T14:39:22.266Z,9.60
2023-02-23T14:41:50.359Z,9.67
2023-02-23T14:44:29.100Z,9.60
2023-02-23T14:47:00.303Z,9.62
2023-02-23T14:49:28.026Z,9.60
2023-02-23T14:51:55.123Z,9.70
2023-02-23T14:54:32.421Z,9.64
2023-02-23T14:56:59.575Z,9.56
2023-02-23T14:59:27.487Z,9.46
2023-02-23T15:01:54.583Z,9.47
2023-02-23T15:04:21.960Z,9.38
2023-02-23T15:06:48.618Z,9.40
2023-02-23T15:09:17.926Z,9.56
2023-02-23T15:11:48.296Z,9.50
2023-02-23T15:14:26.838Z,9.54
2023-02-23T15:16:55.379Z,9.37
2023-02-23T15:19:23.301Z,9.29
2023-02-23T15:21:51.062Z,9.25
2023-02-23T15:24:21.113Z,9.30
2023-02-23T15:26:48.813Z,9.23
2023-02-23T15:29:16.820Z,9.22
2023-02-23T15:31:44.546Z,9.23
2023-02-23T15:34:11.266Z,9.24
2023-02-23T15:36:38.156Z,9.22
2023-02-23T15:39:05.577Z,9.21
2023-02-23T15:41:33.565Z,9.26
2023-02-23T15:44:05.476Z,9.26
2023-02-23T15:46:32.979Z,9.37
2023-02-23T15:49:00.779Z,9.42
2023-02-23T15:51:31.584Z,9.32
2023-02-23T15:53:59.165Z,9.26
2023-02-23T15:56:26.579Z,9.23
2023-02-23T15:58:57.278Z,9.22
2023-02-23T16:01:26.113Z,9.23
2023-02-23T16:03:57.438Z,9.15
2023-02-23T16:06:24.778Z,9.28
2023-02-23T16:08:57.859Z,9.12
2023-02-23T16:11:24.509Z,9.01
2023-02-23T16:13:52.810Z,8.98
2023-02-23T16:16:21.102Z,9.02
2023-02-23T16:18:52.131Z,9.03
2023-02-23T16:21:21.444Z,9.06
2023-02-23T16:23:49.153Z,9.00
2023-02-23T16:26:18.235Z,8.92
2023-02-23T16:28:45.715Z,8.92
2023-02-23T16:31:12.883Z,8.91
2023-02-23T16:33:43.614Z,8.90
2023-02-23T16:36:15.673Z,8.88
2023-02-23T16:38:46.508Z,8.97
2023-02-23T16:41:15.567Z,8.97
2023-02-23T16:43:42.006Z,8.92
2023-02-23T16:46:08.387Z,8.91
2023-02-23T16:48:34.724Z,8.92
2023-02-23T16:51:01.051Z,8.92
2023-02-23T16:53:28.680Z,8.84
2023-02-23T16:55:55.667Z,8.87
2023-02-23T16:58:23.053Z,8.80
2023-02-23T17:00:49.447Z,8.92
2023-02-23T17:03:17.722Z,9.01
2023-02-23T17:05:44.030Z,9.04
2023-02-23T17:08:10.354Z,8.85
2023-02-23T17:10:38.067Z,8.75
2023-02-23T17:13:05.353Z,8.76
2023-02-23T17:15:33.679Z,8.79
2023-02-23T17:18:00.022Z,8.75
2023-02-23T17:20:28.234Z,8.70
2023-02-23T17:22:55.138Z,8.75
2023-02-23T17:25:23.188Z,8.73
2023-02-23T17:27:51.782Z,8.80
2023-02-23T17:30:18.515Z,8.74
2023-02-23T17:32:45.093Z,8.73
2023-02-23T17:35:11.622Z,8.64
2023-02-23T17:37:38.232Z,8.60
2023-02-23T17:40:06.043Z,8.60
2023-02-23T17:42:32.812Z,8.60
2023-02-23T17:45:00.658Z,8.61
2023-02-23T17:47:27.004Z,8.60
2023-02-23T17:49:53.332Z,8.71
2023-02-23T17:52:19.612Z,8.66
2023-02-23T17:54:46.112Z,8.59
2023-02-23T17:57:13.134Z,8.55
2023-02-23T17:59:39.461Z,8.57
2023-02-23T18:02:10.226Z,8.56
2023-02-23T18:04:38.767Z,8.54
2023-02-23T18:07:05.084Z,8.55
2023-02-23T18:09:31.431Z,8.50
2023-02-23T18:11:57.789Z,8.48
2023-02-23T18:14:24.107Z,8.46
2023-02-23T18:16:50.448Z,8.44
2023-02-23T18:19:18.087Z,8.44
2023-02-23T18:21:44.408Z,8.43
2023-02-23T18:24:10.889Z,8.44
2023-02-23T18:26:37.262Z,8.40
2023-02-23T18:29:03.894Z,8.39
2023-02-23T18:31:30.426Z,8.37
2023-02-23T18:33:57.294Z,8.37
2023-02-23T18:36:25.848Z,8.33
2023-02-23T18:38:52.307Z,8.32
2023-02-23T18:41:19.096Z,8.30
2023-02-23T18:43:45.409Z,8.28
2023-02-23T18:46:12.550Z,8.27
2023-02-23T18:48:39.340Z,8.26
2023-02-23T18:51:06.254Z,8.24
2023-02-23T18:53:34.360Z,8.25
2023-02-23T18:56:03.962Z,8.24
2023-02-23T18:58:30.283Z,8.26
2023-02-23T19:00:56.673Z,8.25
2023-02-23T19:03:23.026Z,8.21
2023-02-23T19:05:49.325Z,8.19
2023-02-23T19:08:15.640Z,8.18
2023-02-23T19:10:43.311Z,8.14
2023-02-23T19:13:09.611Z,8.16
2023-02-23T19:15:36.139Z,8.12
2023-02-23T19:18:02.717Z,8.11
2023-02-23T19:20:29.009Z,8.11
2023-02-23T19:22:55.295Z,8.10
2023-02-23T19:25:21.615Z,8.09
2023-02-23T19:27:49.439Z,8.09
2023-02-23T19:30:15.789Z,8.10
2023-02-23T19:32:42.751Z,8.09
2023-02-23T19:35:10.110Z,8.13
2023-02-23T19:37:36.778Z,8.13
2023-02-23T19:40:03.937Z,8.14
2023-02-23T19:42:30.451Z,8.22
2023-02-23T19:44:58.852Z,8.29
2023-02-23T19:47:25.170Z,8.30
2023-02-23T19:49:51.514Z,8.24
2023-02-23T19:52:17.954Z,8.21
2023-02-23T19:54:44.300Z,8.33
2023-02-23T19:57:10.593Z,8.38
2023-02-23T19:59:36.993Z,8.28
2023-02-23T20:02:04.690Z,8.34
2023-02-23T20:04:31.070Z,8.42
2023-02-23T20:06:57.366Z,8.32
2023-02-23T20:09:23.653Z,8.43
2023-02-23T20:11:49.941Z,8.25
2023-02-23T20:14:16.226Z,8.21
2023-02-23T20:16:42.536Z,8.29
2023-02-23T20:19:10.307Z,8.18
2023-02-23T20:21:36.680Z,7.92
2023-02-23T20:24:03.175Z,8.08
2023-02-23T20:26:30.943Z,8.04
2023-02-23T20:28:57.831Z,8.10
2023-02-23T20:31:25.836Z,8.02
2023-02-23T20:33:52.741Z,7.97
2023-02-23T20:36:21.177Z,7.79
2023-02-23T20:38:47.588Z,7.77
2023-02-23T20:41:14.057Z,7.84
2023-02-23T20:43:40.713Z,7.95
2023-02-23T20:46:07.077Z,7.61
2023-02-23T20:48:34.232Z,7.62
2023-02-23T20:51:00.623Z,7.71
2023-02-23T20:53:29.065Z,7.61
2023-02-23T20:55:55.654Z,7.22
2023-02-23T20:58:22.182Z,7.23
2023-02-23T21:00:48.516Z,7.18
2023-02-23T21:03:14.817Z,7.06
2023-02-23T21:05:41.457Z,7.04
2023-02-23T21:08:08.765Z,7.02
2023-02-23T21:10:37.786Z,6.99
2023-02-23T21:13:04.455Z,6.91
2023-02-23T21:15:31.025Z,6.84
2023-02-23T21:17:57.761Z,6.85
2023-02-23T21:20:24.909Z,6.79
2023-02-23T21:22:51.291Z,6.71
2023-02-23T21:25:18.229Z,6.83
2023-02-23T21:27:45.906Z,6.71
2023-02-23T21:30:13.187Z,6.69
2023-02-23T21:32:39.551Z,6.78
2023-02-23T21:35:06.435Z,6.70
2023-02-23T21:37:32.795Z,6.69
2023-02-23T21:39:59.115Z,6.71
2023-02-23T21:42:25.418Z,6.73
2023-02-23T21:44:53.242Z,6.72
2023-02-23T21:47:19.540Z,6.73
2023-02-23T21:49:45.909Z,6.66
2023-02-23T21:52:12.188Z,6.66
2023-02-23T21:54:38.505Z,6.69
2023-02-23T21:57:04.786Z,6.69
2023-02-23T21:59:33.996Z,6.64
2023-02-23T22:02:01.674Z,6.49
2023-02-23T22:04:28.050Z,6.40
2023-02-23T22:06:54.338Z,6.40
2023-02-23T22:09:20.617Z,6.28
2023-02-23T22:11:47.108Z,6.16
2023-02-23T22:14:13.593Z,6.14
2023-02-23T22:16:40.416Z,6.18
2023-02-23T22:19:08.469Z,6.10
2023-02-23T22:21:35.732Z,6.02
2023-02-23T22:24:02.539Z,5.99
2023-02-23T22:26:28.839Z,5.98
2023-02-23T22:28:55.160Z,5.89
2023-02-23T22:31:21.806Z,5.83
2023-02-23T22:33:48.335Z,5.79
2023-02-23T22:36:16.292Z,5.80
2023-02-23T22:38:42.668Z,5.78
2023-02-23T22:41:09.254Z,5.74
2023-02-23T22:43:35.584Z,5.72
2023-02-23T22:46:01.862Z,5.71
2023-02-23T22:48:28.276Z,5.70
2023-02-23T22:50:55.550Z,5.72
2023-02-23T22:53:23.197Z,5.70
2023-02-23T22:55:50.174Z,5.67
2023-02-23T22:58:16.484Z,5.66
2023-02-23T23:00:42.930Z,5.66
2023-02-23T23:03:09.334Z,5.66
2023-02-23T23:05:35.627Z,5.66
2023-02-23T23:08:01.903Z,5.66
2023-02-23T23:10:29.541Z,5.68
2023-02-23T23:12:55.834Z,5.68
2023-02-23T23:15:23.537Z,5.68
2023-02-23T23:17:49.963Z,5.62
2023-02-23T23:20:17.656Z,5.61
2023-02-23T23:22:44.324Z,5.55
2023-02-23T23:25:10.645Z,5.58
2023-02-23T23:27:38.292Z,5.57
2023-02-23T23:30:04.902Z,5.48
2023-02-23T23:32:31.530Z,5.43
2023-02-23T23:34:57.895Z,5.35
2023-02-23T23:37:24.182Z,5.30
2023-02-23T23:39:50.453Z,5.27
2023-02-23T23:42:16.752Z,5.15
2023-02-23T23:44:44.413Z,5.12
2023-02-23T23:47:10.719Z,5.05
2023-02-23T23:49:37.151Z,4.98
2023-02-23T23:52:04.165Z,4.98
2023-02-23T23:54:31.659Z,4.95
2023-02-23T23:56:58.289Z,4.92
2023-02-23T23:59:25.468Z,4.85
